Puto Island — XUTS7 — position and weather

sailwx.info

Track history (hours):
 
Tides and Currents Weather Stations Pressure Air Temp Water Temp Dewpoint Dewpoint Depression Visibility Wind Speed Wind Dir Waves Ship Positions

Puto Island

Last reported at 2015-Jul-28 03:33 UTC. Time now 2015-Aug-02 08:22 UTC.
Position N 34°36' E 135°05'.

Length 71 m; draft 3.6 m.

Type: Cargo ship. MMSI: 514198000.

Date/timePositionNaut miles runAvg speedWind from/ knotsBaromVisibWave heightAir tempDewpointWater temp
2015-Jul-28 03:33N 34°36' E 135°05'9 9.3
2015-Jul-28 02:33N 34°39' E 135°16'3 2.8
2015-Jul-28 01:31N 34°41' E 135°13'0 0.0
2015-Jul-28 00:31N 34°41' E 135°13'0 0.0
2015-Jul-27 23:31N 34°41' E 135°13'0 0.0
2015-Jul-27 22:31N 34°41' E 135°13'4 3.7
2015-Jul-27 21:33N 34°38' E 135°16'1 1.0
2015-Jul-27 20:26N 34°37' E 135°14'0 0.0
2015-Jul-27 19:32N 34°37' E 135°14'0 0.0
2015-Jul-27 18:14N 34°37' E 135°14'0 0.0
2015-Jul-27 17:26N 34°37' E 135°14'0 0.0
2015-Jul-27 16:20N 34°37' E 135°14'0 0.0
2015-Jul-27 15:33N 34°37' E 135°14'9 8.7
2015-Jul-27 14:33N 34°35' E 135°04'  
2015-Jul-19 00:27N 38°59' E 117°46'0 0.0
2015-Jul-18 23:33N 38°59' E 117°46'0 0.0
2015-Jul-18 22:33N 38°59' E 117°46'0 0.0
2015-Jul-18 21:27N 38°59' E 117°46'0 0.0
2015-Jul-18 20:33N 38°59' E 117°46'0 0.0
2015-Jul-18 19:33N 38°59' E 117°46'0 0.0
2015-Jul-18 18:33N 38°59' E 117°46'0 0.0
2015-Jul-18 17:33N 38°59' E 117°46'0 0.0
2015-Jul-18 16:27N 38°59' E 117°46'0 0.0
2015-Jul-18 15:27N 38°59' E 117°46'0 0.0
2015-Jul-18 14:33N 38°59' E 117°46'0 0.0
2015-Jul-18 13:33N 38°59' E 117°46'0 0.0
2015-Jul-18 12:33N 38°59' E 117°46'0 0.0
2015-Jul-18 11:33N 38°59' E 117°46'0 0.0
2015-Jul-18 10:09N 38°59' E 117°46'  
Track history (hours):
 
Tides and Currents Weather Stations Pressure Air Temp Water Temp Dewpoint Dewpoint Depression Visibility Wind Speed Wind Dir Waves Ship Positions

Puto Island

Last reported at 2015-Jul-28 03:33 UTC. Time now 2015-Aug-02 08:22 UTC.
Position N 34°36' E 135°05'.

Length 71 m; draft 3.6 m.

Type: Cargo ship. MMSI: 514198000.

Date/timePositionNaut miles runAvg speedWind from/ knotsBaromVisibWave heightAir tempDewpointWater temp
2015-Jul-28 03:33N 34°36' E 135°05'9 9.3
2015-Jul-28 02:33N 34°39' E 135°16'3 2.8
2015-Jul-28 01:31N 34°41' E 135°13'0 0.0
2015-Jul-28 00:31N 34°41' E 135°13'0 0.0
2015-Jul-27 23:31N 34°41' E 135°13'0 0.0
2015-Jul-27 22:31N 34°41' E 135°13'4 3.7
2015-Jul-27 21:33N 34°38' E 135°16'1 1.0
2015-Jul-27 20:26N 34°37' E 135°14'0 0.0
2015-Jul-27 19:32N 34°37' E 135°14'0 0.0
2015-Jul-27 18:14N 34°37' E 135°14'0 0.0
2015-Jul-27 17:26N 34°37' E 135°14'0 0.0
2015-Jul-27 16:20N 34°37' E 135°14'0 0.0
2015-Jul-27 15:33N 34°37' E 135°14'9 8.7
2015-Jul-27 14:33N 34°35' E 135°04'  
2015-Jul-19 00:27N 38°59' E 117°46'0 0.0
2015-Jul-18 23:33N 38°59' E 117°46'0 0.0
2015-Jul-18 22:33N 38°59' E 117°46'0 0.0
2015-Jul-18 21:27N 38°59' E 117°46'0 0.0
2015-Jul-18 20:33N 38°59' E 117°46'0 0.0
2015-Jul-18 19:33N 38°59' E 117°46'0 0.0
2015-Jul-18 18:33N 38°59' E 117°46'0 0.0
2015-Jul-18 17:33N 38°59' E 117°46'0 0.0
2015-Jul-18 16:27N 38°59' E 117°46'0 0.0
2015-Jul-18 15:27N 38°59' E 117°46'0 0.0
2015-Jul-18 14:33N 38°59' E 117°46'0 0.0
2015-Jul-18 13:33N 38°59' E 117°46'0 0.0
2015-Jul-18 12:33N 38°59' E 117°46'0 0.0
2015-Jul-18 11:33N 38°59' E 117°46'0 0.0
2015-Jul-18 10:09N 38°59' E 117°46'  

Dump ship's entire track history